^^
Meteo Knjazevac Station Historical Data
Daily Summary for June 19, 2021 Units:  English    Metric   Both
Daily Weekly Monthly Yearly Custom
  High: Low: Average:
Temperature: 50.4 °F 46.2 °F 47.7 °F
Dew Point: 45.7 °F 43.7 °F 44.4 °F
Humidity: 93% 84% 89%
Wind Speed: 2mph 0mph 0.7mph
Wind Gust: 5mph - -
Wind- - West
Pressure: 30.01 in 29.99 in -
Precipitation: 0.00 in    
Historical Graphs
 
 
Tabular Data for June 19, 2021
Time Temperature Dew Point Pressure Wind Wind Speed Wind Gust Humidity Rainfall Rate (Hourly) solar Conditions
00:00 50.4 °F 45.7 °F 30.01 in North 1 mph 2 mph 84% 0.00 in 0 W/m2
00:10 49.8 °F 45.2 °F 30.01 in Calm   2 mph 84% 0.00 in 0 W/m2
00:20 49.6 °F 45.3 °F 30.01 in Calm   2 mph 85% 0.00 in 0 W/m2
00:30 49.1 °F 44.8 °F 30.00 in North 1 mph 4 mph 85% 0.00 in 0 W/m2
00:40 48.6 °F 44.6 °F 30.00 in WNW 1 mph 3 mph 86% 0.00 in 0 W/m2
00:50 48.6 °F 44.6 °F 30.00 in Calm   2 mph 86% 0.00 in 0 W/m2
01:00 48.1 °F 44.1 °F 30.01 in Calm   2 mph 86% 0.00 in 0 W/m2
01:10 47.9 °F 44.2 °F 30.01 in Calm   4 mph 87% 0.00 in 0 W/m2
01:20 47.8 °F 44.5 °F 30.01 in WSW 1 mph 5 mph 88% 0.00 in 0 W/m2
01:30 47.5 °F 44.1 °F 30.01 in Calm   3 mph 88% 0.00 in 0 W/m2
01:40 47.3 °F 44.2 °F 30.00 in Calm   3 mph 89% 0.00 in 0 W/m2
01:50 47.3 °F 44.2 °F 30.00 in Calm   2 mph 89% 0.00 in 0 W/m2
02:00 47.3 °F 44.2 °F 30.00 in WNW 1 mph 2 mph 89% 0.00 in 0 W/m2
02:10 47.3 °F 44.5 °F 30.00 in NNW 1 mph 3 mph 90% 0.00 in 0 W/m2
02:20 47.4 °F 44.7 °F 30.00 in NW 1 mph 4 mph 90% 0.00 in 0 W/m2
02:30 47.1 °F 44.3 °F 30.00 in WNW 1 mph 3 mph 90% 0.00 in 0 W/m2
02:40 46.9 °F 44.4 °F 30.00 in WNW 2 mph 4 mph 91% 0.00 in 0 W/m2
02:50 46.8 °F 44.3 °F 30.00 in West 2 mph 3 mph 91% 0.00 in 0 W/m2
03:00 46.6 °F 44.1 °F 30.01 in WNW 1 mph 3 mph 91% 0.00 in 0 W/m2
03:10 46.4 °F 43.9 °F 30.00 in Calm   2 mph 91% 0.00 in 0 W/m2
03:20 46.3 °F 43.8 °F 30.00 in WNW 1 mph 2 mph 91% 0.00 in 0 W/m2
03:30 46.2 °F 43.7 °F 29.99 in NW 1 mph 2 mph 91% 0.00 in 0 W/m2
03:40 46.4 °F 44.5 °F 29.99 in Calm   3 mph 93% 0.00 in 0 W/m2
Knjazevac, Serbia
Compliments of Weather Underground - 2 mb